createdAt,value
2023-03-29T00:02:32.392Z,1.08
2023-03-29T00:05:38.800Z,1.05
2023-03-29T00:08:42.441Z,1.09
2023-03-29T00:11:46.089Z,1.05
2023-03-29T00:14:48.801Z,1.03
2023-03-29T00:17:51.843Z,1.01
2023-03-29T00:20:56.548Z,0.96
2023-03-29T00:23:59.349Z,0.88
2023-03-29T00:27:02.685Z,0.82
2023-03-29T00:30:07.882Z,0.82
2023-03-29T00:33:11.866Z,0.82
2023-03-29T00:36:16.068Z,0.84
2023-03-29T00:39:20.609Z,0.84
2023-03-29T00:42:24.827Z,0.70
2023-03-29T00:45:31.649Z,0.78
2023-03-29T00:48:34.687Z,0.82
2023-03-29T00:51:39.580Z,0.76
2023-03-29T00:54:44.872Z,0.73
2023-03-29T00:57:49.332Z,0.67
2023-03-29T01:01:08.786Z,0.60
2023-03-29T01:04:22.363Z,0.56
2023-03-29T01:07:36.049Z,0.52
2023-03-29T01:10:45.559Z,0.53
2023-03-29T01:14:10.678Z,0.40
2023-03-29T01:17:13.512Z,0.35
2023-03-29T01:20:34.443Z,1.76
2023-03-29T01:24:06.851Z,0.71
2023-03-29T01:27:47.467Z,0.49
2023-03-29T01:30:56.266Z,0.22
2023-03-29T01:34:10.083Z,0.20
2023-03-29T01:37:26.594Z,0.05
2023-03-29T01:40:31.116Z,0.03
2023-03-29T01:43:41.128Z,0.09
2023-03-29T01:46:47.475Z,0.02
2023-03-29T01:49:53.331Z,-0.01
2023-03-29T01:53:07.794Z,-0.10
2023-03-29T01:56:18.027Z,-0.19
2023-03-29T01:59:26.327Z,-0.25
2023-03-29T02:02:31.883Z,-0.28
2023-03-29T02:05:37.139Z,-0.19
2023-03-29T02:08:41.759Z,-0.13
2023-03-29T02:11:45.439Z,-0.23
2023-03-29T02:14:48.343Z,-0.20
2023-03-29T02:17:51.465Z,-0.26
2023-03-29T02:20:57.495Z,-0.32
2023-03-29T02:24:06.363Z,-0.36
2023-03-29T02:27:09.254Z,-0.32
2023-03-29T02:30:14.574Z,-0.45
2023-03-29T02:33:22.156Z,-0.44
2023-03-29T02:37:01.296Z,-0.47
2023-03-29T02:40:12.589Z,-0.52
2023-03-29T02:43:16.687Z,-0.59
2023-03-29T02:46:21.060Z,-0.59
2023-03-29T02:49:25.006Z,-0.69
2023-03-29T02:52:34.245Z,-0.73
2023-03-29T02:55:39.040Z,-0.65
2023-03-29T02:58:42.002Z,-0.65
2023-03-29T03:01:45.237Z,-0.77
2023-03-29T03:04:48.531Z,-0.77
2023-03-29T03:07:51.576Z,-0.77
2023-03-29T03:10:54.459Z,-0.84
2023-03-29T03:13:57.298Z,-0.82
2023-03-29T03:17:03.844Z,-0.84
2023-03-29T03:20:13.099Z,-0.72
2023-03-29T03:23:18.833Z,-0.77
2023-03-29T03:26:22.460Z,-0.83
2023-03-29T03:29:26.134Z,-0.76
2023-03-29T03:32:32.689Z,-0.73
2023-03-29T03:35:38.683Z,-0.72
2023-03-29T03:38:44.656Z,-0.57
2023-03-29T03:41:47.831Z,-0.57
2023-03-29T03:44:52.121Z,-0.66
2023-03-29T03:47:55.295Z,-0.63
2023-03-29T03:50:59.323Z,-0.73
2023-03-29T03:54:05.032Z,-0.77
2023-03-29T03:57:08.869Z,-0.74
2023-03-29T04:00:19.625Z,-0.73
2023-03-29T04:03:24.143Z,-0.76
2023-03-29T04:06:30.537Z,-0.76
2023-03-29T04:09:35.681Z,-0.71
2023-03-29T04:12:40.041Z,-0.73
2023-03-29T04:15:46.229Z,-0.75
2023-03-29T04:18:50.073Z,-0.81
2023-03-29T04:21:53.200Z,-0.85
2023-03-29T04:24:56.271Z,-0.93
2023-03-29T04:28:01.432Z,-1.00
2023-03-29T04:31:04.942Z,-0.87
2023-03-29T04:34:08.395Z,-0.83
2023-03-29T04:37:11.113Z,-0.63
2023-03-29T04:40:15.037Z,-0.43
2023-03-29T04:43:18.872Z,-0.21
2023-03-29T04:46:26.478Z,0.04
2023-03-29T04:49:31.188Z,0.29
2023-03-29T04:52:35.029Z,0.49
2023-03-29T04:55:38.177Z,0.88
2023-03-29T04:58:42.288Z,1.33
2023-03-29T05:01:45.788Z,1.52
2023-03-29T05:04:48.898Z,1.45
2023-03-29T05:07:54.963Z,1.63
2023-03-29T05:10:58.359Z,1.66
2023-03-29T05:14:03.384Z,1.23
2023-03-29T05:17:06.645Z,0.89
2023-03-29T05:20:10.321Z,0.59
2023-03-29T05:23:13.881Z,0.46
2023-03-29T05:26:22.349Z,0.40
2023-03-29T05:29:25.522Z,0.45
2023-03-29T05:32:29.029Z,0.45
2023-03-29T05:35:32.355Z,0.40
2023-03-29T05:38:35.931Z,0.62
2023-03-29T05:41:39.629Z,0.89
2023-03-29T05:44:48.592Z,1.20
2023-03-29T05:47:52.138Z,1.18
2023-03-29T05:50:56.447Z,1.08
2023-03-29T05:53:59.613Z,1.37
2023-03-29T05:57:02.379Z,1.20
2023-03-29T06:00:20.162Z,1.08
2023-03-29T06:03:28.612Z,1.62
2023-03-29T06:06:32.160Z,1.53
2023-03-29T06:09:35.218Z,1.39
2023-03-29T06:12:40.227Z,1.39
2023-03-29T06:15:45.161Z,1.46
2023-03-29T06:18:48.081Z,1.99
2023-03-29T06:21:53.774Z,2.02
2023-03-29T06:24:58.492Z,2.23
2023-03-29T06:28:02.697Z,2.46
2023-03-29T06:31:06.008Z,2.72
2023-03-29T06:34:13.206Z,2.91
2023-03-29T06:37:19.435Z,2.88
2023-03-29T06:40:24.951Z,3.46
2023-03-29T06:43:27.560Z,3.65
2023-03-29T06:46:30.480Z,3.50
2023-03-29T06:49:35.038Z,3.84
2023-03-29T06:52:39.927Z,4.00
2023-03-29T06:55:42.875Z,4.02
2023-03-29T06:58:47.226Z,3.79
2023-03-29T07:01:54.135Z,3.68
2023-03-29T07:04:57.284Z,3.94
2023-03-29T07:08:02.455Z,4.27
2023-03-29T07:11:06.179Z,4.47
2023-03-29T07:14:10.706Z,5.09
2023-03-29T07:17:13.741Z,4.57
2023-03-29T07:20:16.853Z,4.70
2023-03-29T07:23:20.176Z,4.08
2023-03-29T07:26:28.560Z,4.39
2023-03-29T07:29:33.767Z,4.90
2023-03-29T07:32:38.850Z,4.67
2023-03-29T07:35:43.872Z,5.06
2023-03-29T07:38:46.692Z,4.73
2023-03-29T07:41:50.726Z,4.48
2023-03-29T07:44:54.473Z,4.83
2023-03-29T07:47:59.556Z,5.44
2023-03-29T07:51:03.870Z,5.61
2023-03-29T07:54:08.171Z,6.29
2023-03-29T07:57:12.328Z,6.08
2023-03-29T08:00:16.529Z,6.32
2023-03-29T08:03:20.837Z,6.05
2023-03-29T08:06:26.698Z,6.26
2023-03-29T08:09:30.444Z,6.79
2023-03-29T08:12:33.110Z,6.46
2023-03-29T08:15:39.195Z,6.93
2023-03-29T08:18:43.546Z,7.13
2023-03-29T08:21:47.988Z,6.76
2023-03-29T08:24:51.377Z,6.89
2023-03-29T08:27:54.517Z,6.89
2023-03-29T08:30:57.997Z,6.74
2023-03-29T08:34:01.185Z,7.17
2023-03-29T08:37:05.460Z,6.99
2023-03-29T08:40:17.555Z,7.90
2023-03-29T08:43:28.685Z,8.00
2023-03-29T08:47:12.767Z,8.47
2023-03-29T08:50:18.352Z,9.95
2023-03-29T08:53:34.578Z,10.46
2023-03-29T08:56:40.631Z,10.96
2023-03-29T08:59:45.735Z,10.37
2023-03-29T09:02:53.957Z,10.85
2023-03-29T09:06:03.940Z,11.58
2023-03-29T09:09:15.244Z,11.73
2023-03-29T09:12:59.388Z,9.59
2023-03-29T09:16:25.014Z,11.12
2023-03-29T09:19:45.451Z,11.47
2023-03-29T09:23:28.517Z,11.57
2023-03-29T09:26:49.252Z,9.38
2023-03-29T09:30:14.563Z,10.48
2023-03-29T09:33:23.837Z,10.86
2023-03-29T09:36:48.162Z,10.60
2023-03-29T09:39:53.199Z,9.93
2023-03-29T09:42:58.554Z,10.35
2023-03-29T09:46:15.953Z,11.19
2023-03-29T09:49:24.915Z,11.50
2023-03-29T09:52:28.187Z,10.79
2023-03-29T09:55:34.072Z,11.98
2023-03-29T09:58:38.051Z,12.85
2023-03-29T10:01:45.628Z,12.48
2023-03-29T10:05:04.479Z,12.62
2023-03-29T10:08:27.309Z,13.67
2023-03-29T10:11:34.831Z,13.21
2023-03-29T10:14:42.612Z,13.39
2023-03-29T10:17:46.374Z,13.55
2023-03-29T10:20:49.236Z,13.05
2023-03-29T10:23:59.388Z,13.29
2023-03-29T10:27:06.898Z,13.66
2023-03-29T10:30:22.331Z,13.97
2023-03-29T10:33:30.066Z,13.81
2023-03-29T10:36:33.374Z,13.04
2023-03-29T10:39:36.652Z,13.10
2023-03-29T10:42:48.082Z,12.48
2023-03-29T10:45:53.843Z,11.90
2023-03-29T10:49:06.203Z,12.53
2023-03-29T10:52:09.541Z,12.19
2023-03-29T10:55:14.017Z,12.69
2023-03-29T10:58:30.167Z,14.13
2023-03-29T11:01:45.909Z,12.44
2023-03-29T11:05:06.127Z,13.28
2023-03-29T11:08:18.517Z,12.37
2023-03-29T11:11:36.449Z,13.11
2023-03-29T11:15:09.834Z,13.69
2023-03-29T11:18:12.316Z,14.29
2023-03-29T11:21:48.228Z,13.74
2023-03-29T11:25:10.244Z,12.56
2023-03-29T11:28:24.125Z,12.63
2023-03-29T11:31:48.497Z,12.75
2023-03-29T11:34:57.401Z,13.13
2023-03-29T11:38:11.091Z,12.63
2023-03-29T11:41:27.603Z,12.16
2023-03-29T11:44:31.611Z,12.69
2023-03-29T11:47:40.510Z,12.98
2023-03-29T11:50:51.994Z,12.28
2023-03-29T11:54:13.474Z,12.72
2023-03-29T11:57:29.166Z,12.10
2023-03-29T12:00:44.933Z,13.00
2023-03-29T12:03:55.852Z,13.16
2023-03-29T12:07:01.911Z,11.56
2023-03-29T12:10:31.540Z,11.86
2023-03-29T12:13:44.726Z,10.71
2023-03-29T12:16:53.384Z,10.88
2023-03-29T12:20:07.700Z,11.53
2023-03-29T12:23:16.729Z,11.67
2023-03-29T12:26:40.579Z,12.29
2023-03-29T12:30:01.698Z,12.33
2023-03-29T12:33:07.868Z,11.72
2023-03-29T12:36:57.420Z,11.51
2023-03-29T12:40:13.229Z,10.70
2023-03-29T12:43:32.245Z,11.18
2023-03-29T12:46:36.104Z,10.79
2023-03-29T12:49:39.412Z,10.52
2023-03-29T12:52:42.922Z,10.88
2023-03-29T12:55:53.994Z,10.69
2023-03-29T12:58:59.637Z,10.26
2023-03-29T13:02:14.082Z,10.73
2023-03-29T13:05:38.114Z,10.71
2023-03-29T13:08:43.470Z,10.20
2023-03-29T13:11:52.606Z,9.90
2023-03-29T13:15:02.467Z,9.59
2023-03-29T13:18:33.918Z,10.15
2023-03-29T13:21:39.716Z,10.27
2023-03-29T13:25:06.220Z,10.06
2023-03-29T13:28:24.425Z,10.19
2023-03-29T13:31:46.792Z,10.71
2023-03-29T13:34:57.846Z,10.36
2023-03-29T13:38:22.049Z,10.54
2023-03-29T13:41:40.121Z,10.28
2023-03-29T13:44:45.585Z,10.02
2023-03-29T13:47:58.741Z,9.69
2023-03-29T13:51:27.253Z,9.66
2023-03-29T13:54:39.770Z,10.02
2023-03-29T13:57:51.059Z,10.16
2023-03-29T14:01:17.143Z,10.17
2023-03-29T14:04:25.664Z,10.81
2023-03-29T14:07:30.518Z,10.43
2023-03-29T14:10:45.278Z,10.69
2023-03-29T14:13:47.909Z,10.49
2023-03-29T14:16:51.288Z,10.56
2023-03-29T14:19:58.076Z,10.06
2023-03-29T14:23:01.122Z,10.27
2023-03-29T14:26:14.411Z,10.24
2023-03-29T14:29:18.318Z,10.43
2023-03-29T14:32:30.587Z,10.44
2023-03-29T14:35:33.684Z,9.83
2023-03-29T14:38:37.750Z,10.22
2023-03-29T14:41:54.800Z,10.49
2023-03-29T14:45:09.362Z,10.16
2023-03-29T14:48:13.445Z,10.32
2023-03-29T14:51:16.313Z,10.27
2023-03-29T14:54:34.130Z,10.10
2023-03-29T14:57:37.890Z,10.27
2023-03-29T15:00:45.274Z,9.83
2023-03-29T15:04:04.588Z,10.10
2023-03-29T15:07:09.242Z,9.97
2023-03-29T15:10:19.281Z,9.97
2023-03-29T15:13:24.652Z,9.94
2023-03-29T15:16:30.399Z,10.01
2023-03-29T15:19:34.397Z,10.09
2023-03-29T15:22:38.608Z,9.92
2023-03-29T15:25:53.398Z,9.98
2023-03-29T15:29:13.447Z,10.12
2023-03-29T15:32:22.632Z,10.21
2023-03-29T15:35:27.222Z,10.10
2023-03-29T15:38:40.847Z,10.13
2023-03-29T15:41:51.878Z,10.17
2023-03-29T15:44:56.416Z,9.95
2023-03-29T15:48:02.073Z,9.95
2023-03-29T15:51:06.671Z,10.04
2023-03-29T15:54:09.905Z,9.82
2023-03-29T15:57:15.607Z,9.97
2023-03-29T16:00:21.125Z,9.81
2023-03-29T16:03:24.846Z,9.79
2023-03-29T16:06:27.784Z,9.83
2023-03-29T16:09:30.879Z,9.64
2023-03-29T16:12:36.004Z,9.56
2023-03-29T16:15:41.435Z,9.55
2023-03-29T16:18:46.984Z,9.56
2023-03-29T16:21:50.961Z,9.41
2023-03-29T16:24:53.973Z,9.43
2023-03-29T16:27:56.976Z,9.30
2023-03-29T16:31:00.121Z,9.36
2023-03-29T16:34:04.996Z,9.36
2023-03-29T16:37:07.669Z,9.30
2023-03-29T16:40:12.509Z,9.40
2023-03-29T16:43:16.391Z,9.36
2023-03-29T16:46:19.632Z,9.26
2023-03-29T16:49:22.492Z,9.22
2023-03-29T16:52:27.020Z,9.24
2023-03-29T16:55:29.979Z,9.10
2023-03-29T16:58:33.486Z,9.21
2023-03-29T17:01:36.831Z,9.11
2023-03-29T17:04:40.084Z,9.06
2023-03-29T17:07:43.376Z,8.95
2023-03-29T17:10:51.643Z,8.96
2023-03-29T17:13:55.268Z,8.93
2023-03-29T17:16:58.947Z,8.94
2023-03-29T17:20:01.966Z,8.92
2023-03-29T17:23:06.074Z,8.83
2023-03-29T17:26:09.259Z,8.77
2023-03-29T17:29:13.040Z,8.94
2023-03-29T17:32:16.358Z,8.78
2023-03-29T17:35:22.529Z,8.73
2023-03-29T17:38:26.770Z,8.85
2023-03-29T17:41:31.039Z,8.78
2023-03-29T17:44:34.349Z,8.73
2023-03-29T17:47:39.103Z,8.79
2023-03-29T17:50:43.388Z,8.77
2023-03-29T17:53:47.061Z,8.73
2023-03-29T17:56:50.704Z,8.68
2023-03-29T17:59:54.712Z,8.66
2023-03-29T18:02:58.207Z,8.67
2023-03-29T18:06:02.464Z,8.52
2023-03-29T18:09:05.717Z,8.56
2023-03-29T18:12:09.530Z,8.58
2023-03-29T18:15:12.739Z,8.56
2023-03-29T18:18:16.518Z,8.60
2023-03-29T18:21:21.115Z,8.78
2023-03-29T18:24:24.649Z,8.97
2023-03-29T18:27:29.701Z,9.11
2023-03-29T18:30:36.119Z,8.97
2023-03-29T18:33:40.089Z,8.95
2023-03-29T18:36:43.890Z,9.54
2023-03-29T18:39:48.720Z,9.06
2023-03-29T18:42:52.383Z,9.18
2023-03-29T18:45:55.153Z,9.09
2023-03-29T18:49:03.307Z,9.04
2023-03-29T18:52:06.490Z,9.31
2023-03-29T18:55:10.455Z,9.38
2023-03-29T18:58:15.495Z,9.31
2023-03-29T19:01:19.148Z,9.25
2023-03-29T19:04:22.335Z,9.17
2023-03-29T19:07:28.980Z,9.25
2023-03-29T19:10:38.506Z,9.20
2023-03-29T19:13:45.762Z,9.52
2023-03-29T19:16:48.436Z,9.18
2023-03-29T19:19:51.996Z,9.25
2023-03-29T19:22:58.324Z,9.34
2023-03-29T19:26:03.515Z,9.52
2023-03-29T19:29:06.846Z,9.38
2023-03-29T19:32:09.968Z,9.53
2023-03-29T19:35:13.323Z,9.31
2023-03-29T19:38:17.185Z,9.53
2023-03-29T19:41:20.279Z,9.23
2023-03-29T19:44:23.656Z,9.22
2023-03-29T19:47:28.216Z,8.97
2023-03-29T19:50:32.096Z,9.10
2023-03-29T19:53:38.440Z,9.09
2023-03-29T19:56:42.933Z,9.03
2023-03-29T19:59:46.439Z,8.76
2023-03-29T20:02:51.778Z,8.29
2023-03-29T20:05:56.580Z,8.16
2023-03-29T20:08:59.193Z,8.06
2023-03-29T20:12:02.085Z,8.09
2023-03-29T20:15:05.120Z,7.98
2023-03-29T20:18:08.041Z,7.93
2023-03-29T20:21:16.973Z,8.18
2023-03-29T20:24:20.224Z,8.02
2023-03-29T20:27:23.601Z,8.02
2023-03-29T20:30:26.936Z,7.96
2023-03-29T20:33:29.710Z,8.02
2023-03-29T20:36:35.819Z,8.04
2023-03-29T20:39:38.507Z,7.99
2023-03-29T20:42:41.729Z,7.88
2023-03-29T20:45:53.898Z,7.76
2023-03-29T20:48:57.381Z,7.86
2023-03-29T20:52:03.407Z,7.78
2023-03-29T20:55:06.693Z,7.84
2023-03-29T20:58:09.601Z,7.90
2023-03-29T21:01:14.347Z,7.91
2023-03-29T21:04:18.191Z,7.87
2023-03-29T21:07:21.793Z,7.93
2023-03-29T21:10:26.357Z,7.93
2023-03-29T21:13:35.747Z,7.88
2023-03-29T21:16:42.344Z,7.83
2023-03-29T21:19:45.580Z,7.93
2023-03-29T21:22:48.126Z,7.86
2023-03-29T21:25:51.088Z,7.79
2023-03-29T21:28:53.802Z,7.65
2023-03-29T21:31:56.820Z,7.75
2023-03-29T21:34:59.514Z,7.72
2023-03-29T21:38:02.368Z,7.79
2023-03-29T21:41:05.521Z,7.68
2023-03-29T21:44:09.113Z,7.69
2023-03-29T21:47:11.693Z,7.69
2023-03-29T21:50:15.084Z,7.55
2023-03-29T21:53:18.422Z,7.52
2023-03-29T21:56:22.487Z,7.40
2023-03-29T21:59:25.316Z,7.47
2023-03-29T22:02:28.289Z,7.42
2023-03-29T22:05:31.223Z,7.37
2023-03-29T22:08:34.454Z,7.41
2023-03-29T22:11:39.964Z,7.42
2023-03-29T22:14:42.454Z,7.34
2023-03-29T22:17:45.612Z,7.38
2023-03-29T22:20:48.451Z,7.36
2023-03-29T22:23:54.096Z,7.23
2023-03-29T22:26:56.621Z,7.20
2023-03-29T22:29:59.546Z,7.26
2023-03-29T22:33:02.194Z,7.19
2023-03-29T22:36:15.652Z,7.22
2023-03-29T22:39:18.508Z,7.25
2023-03-29T22:42:21.774Z,7.22
2023-03-29T22:45:24.336Z,7.06
2023-03-29T22:48:27.177Z,7.01
2023-03-29T22:51:30.013Z,6.96
2023-03-29T22:54:32.960Z,6.93
2023-03-29T22:57:35.532Z,6.91
2023-03-29T23:00:38.476Z,6.86
2023-03-29T23:03:41.721Z,6.77
2023-03-29T23:06:44.916Z,6.68
2023-03-29T23:09:47.495Z,6.73
2023-03-29T23:12:50.559Z,6.63
2023-03-29T23:15:55.187Z,6.51
2023-03-29T23:18:58.431Z,6.51
2023-03-29T23:22:01.262Z,6.52
2023-03-29T23:25:04.534Z,6.53
2023-03-29T23:28:07.041Z,6.46
2023-03-29T23:31:12.995Z,6.42
2023-03-29T23:34:15.916Z,6.39
2023-03-29T23:37:18.796Z,6.34
2023-03-29T23:40:21.974Z,6.32
2023-03-29T23:43:28.411Z,6.37
2023-03-29T23:46:32.447Z,6.28
2023-03-29T23:49:36.250Z,6.32
2023-03-29T23:52:40.650Z,6.35
2023-03-29T23:55:43.551Z,6.37
2023-03-29T23:58:46.180Z,6.34
